Terminal Aerodrome Forecast
Issued by NWS

Home | Current Version | Previous Version | Text Only | Print | Product List | Glossary Off
Versions: 1 2 3 4 5 6 7 8 9 10 11 12 13 14 15 16 17 18 19

000
FTUS43 KMPX 250857 AAA
TAFAXN
TAF AMD
KAXN 250857Z 2509/2606 23012KT 4SM BR OVC004
     FM250930 25013G20KT P6SM SCT012 BKN035
     FM251130 29018G28KT P6SM VCSH SCT007 OVC015
     FM251600 30027G36KT P6SM BKN025
     FM260100 32016G25KT P6SM SCT100=

USA.gov is the U.S. government's official web portal to all federal, state and local government web resources and services.